Time,TemperatureF,DewpointF,PressureIn,WindDirection,WindDirectionDegrees,WindSpeedMPH,WindSpeedGustMPH,Humidity,HourlyPrecipIn,Conditions,Clouds,dailyrainin,SoftwareType,DateUTC
2013-01-28 00:05:00,19.1,15.0,32.50,SSW,200,2.0,4.0,85,0.00,,,0.00,weatherlink.com 1.10,2013-01-28 07:05:00,
2013-01-28 00:20:00,19.3,15.0,32.50,WSW,246,3.0,7.0,82,0.00,,,0.00,weatherlink.com 1.10,2013-01-28 07:20:00,
2013-01-28 00:35:00,18.8,15.0,32.50,South,188,3.0,5.0,85,0.00,,,0.00,weatherlink.com 1.10,2013-01-28 07:35:00,
2013-01-28 00:50:00,18.5,15.0,32.50,South,188,4.0,5.0,87,0.00,,,0.00,weatherlink.com 1.10,2013-01-28 07:50:00,
2013-01-28 01:05:00,18.4,16.0,32.50,South,180,3.0,6.0,88,0.00,,,0.00,weatherlink.com 1.10,2013-01-28 08:05:00,
2013-01-28 01:20:00,18.2,15.0,32.50,SW,227,1.0,5.0,86,0.00,,,0.00,weatherlink.com 1.10,2013-01-28 08:20:00,
2013-01-28 01:35:00,19.3,14.0,32.50,WNW,288,3.0,8.0,80,0.00,,,0.00,weatherlink.com 1.10,2013-01-28 08:35:00,
2013-01-28 01:50:00,19.3,14.0,32.50,WNW,282,3.0,4.0,80,0.00,,,0.00,weatherlink.com 1.10,2013-01-28 08:50:00,
2013-01-28 02:05:00,17.9,15.0,32.50,ESE,123,5.0,9.0,88,0.00,,,0.00,weatherlink.com 1.10,2013-01-28 09:05:00,
2013-01-28 02:20:00,17.6,15.0,32.50,SE,129,2.0,5.0,90,0.00,,,0.00,weatherlink.com 1.10,2013-01-28 09:20:00,
2013-01-28 02:35:00,17.6,15.0,32.50,South,184,8.0,12.0,89,0.00,,,0.00,weatherlink.com 1.10,2013-01-28 09:35:00,
2013-01-28 02:50:00,17.8,15.0,32.50,South,182,8.0,12.0,88,0.00,,,0.00,weatherlink.com 1.10,2013-01-28 09:50:00,
2013-01-28 03:05:00,17.9,15.0,32.50,South,190,8.0,10.0,88,0.00,,,0.00,weatherlink.com 1.10,2013-01-28 10:05:00,
2013-01-28 03:20:00,17.9,15.0,32.50,SSW,197,11.0,13.0,87,0.00,,,0.00,weatherlink.com 1.10,2013-01-28 10:20:00,
2013-01-28 03:35:00,17.9,15.0,32.50,SSW,192,7.0,11.0,88,0.00,,,0.00,weatherlink.com 1.10,2013-01-28 10:35:00,
2013-01-28 03:50:00,18.0,15.0,32.50,South,185,11.0,17.0,87,0.00,,,0.00,weatherlink.com 1.10,2013-01-28 10:50:00,
2013-01-28 04:05:00,17.9,15.0,32.50,SSW,212,14.0,21.0,88,0.00,,,0.00,weatherlink.com 1.10,2013-01-28 11:05:00,
2013-01-28 04:20:00,17.9,15.0,32.50,SSW,194,6.0,17.0,87,0.00,,,0.00,weatherlink.com 1.10,2013-01-28 11:20:00,
2013-01-28 04:35:00,17.6,15.0,32.50,South,176,9.0,17.0,88,0.00,,,0.00,weatherlink.com 1.10,2013-01-28 11:35:00,
2013-01-28 04:50:00,17.9,15.0,32.50,South,178,10.0,19.0,87,0.00,,,0.00,weatherlink.com 1.10,2013-01-28 11:50:00,
2013-01-28 05:05:00,17.6,15.0,32.50,South,184,9.0,15.0,88,0.00,,,0.00,weatherlink.com 1.10,2013-01-28 12:05:00,
2013-01-28 05:20:00,17.0,15.0,32.50,South,182,11.0,15.0,90,0.00,,,0.00,weatherlink.com 1.10,2013-01-28 12:20:00,
2013-01-28 05:35:00,17.6,15.0,32.50,SSW,193,14.0,18.0,88,0.00,,,0.00,weatherlink.com 1.10,2013-01-28 12:35:00,
2013-01-28 05:50:00,17.7,15.0,32.50,SSW,200,10.0,19.0,87,0.00,,,0.00,weatherlink.com 1.10,2013-01-28 12:50:00,
2013-01-28 06:05:00,17.8,15.0,32.50,SSW,196,11.0,17.0,87,0.00,,,0.00,weatherlink.com 1.10,2013-01-28 13:05:00,
2013-01-28 06:20:00,17.6,15.0,32.50,South,175,7.0,14.0,88,0.00,,,0.00,weatherlink.com 1.10,2013-01-28 13:20:00,
2013-01-28 06:35:00,17.5,15.0,32.50,SSW,196,15.0,17.0,88,0.00,,,0.00,weatherlink.com 1.10,2013-01-28 13:35:00,
2013-01-28 06:50:00,17.3,14.0,32.50,South,169,10.0,16.0,88,0.00,,,0.00,weatherlink.com 1.10,2013-01-28 13:50:00,
2013-01-28 07:05:00,17.2,15.0,32.50,South,175,12.0,21.0,89,0.00,,,0.00,weatherlink.com 1.10,2013-01-28 14:05:00,
2013-01-28 07:20:00,17.0,15.0,32.50,South,185,15.0,21.0,90,0.00,,,0.00,weatherlink.com 1.10,2013-01-28 14:20:00,
2013-01-28 07:35:00,16.6,15.0,32.50,SSW,194,10.0,22.0,91,0.00,,,0.00,weatherlink.com 1.10,2013-01-28 14:35:00,
2013-01-28 07:50:00,16.6,15.0,32.50,South,179,16.0,20.0,91,0.00,,,0.00,weatherlink.com 1.10,2013-01-28 14:50:00,
2013-01-28 08:05:00,16.7,15.0,32.50,South,184,15.0,19.0,92,0.00,,,0.00,weatherlink.com 1.10,2013-01-28 15:05:00,
2013-01-28 08:20:00,16.8,15.0,32.50,SSW,197,15.0,18.0,91,0.00,,,0.00,weatherlink.com 1.10,2013-01-28 15:20:00,
2013-01-28 08:35:00,16.8,15.0,32.50,South,173,10.0,22.0,91,0.00,,,0.00,weatherlink.com 1.10,2013-01-28 15:35:00,
2013-01-28 08:50:00,17.1,15.0,32.50,South,185,18.0,22.0,91,0.00,,,0.00,weatherlink.com 1.10,2013-01-28 15:50:00,
2013-01-28 09:05:00,16.8,15.0,32.50,SSE,165,10.0,21.0,91,0.00,,,0.00,weatherlink.com 1.10,2013-01-28 16:05:00,
2013-01-28 09:20:00,17.2,15.0,32.50,South,170,12.0,19.0,90,0.00,,,0.00,weatherlink.com 1.10,2013-01-28 16:20:00,
2013-01-28 09:35:00,17.6,15.0,32.50,South,177,19.0,23.0,89,0.00,,,0.00,weatherlink.com 1.10,2013-01-28 16:35:00,
2013-01-28 09:51:00,18.1,15.0,32.50,South,184,21.0,21.0,88,0.00,,,0.00,weatherlink.com 1.10,2013-01-28 16:51:00,
2013-01-28 10:06:00,18.0,15.0,32.50,SSE,163,13.0,21.0,87,0.00,,,0.00,weatherlink.com 1.10,2013-01-28 17:06:00,
2013-01-28 10:21:00,17.9,15.0,32.50,SSE,159,12.0,22.0,87,0.00,,,0.00,weatherlink.com 1.10,2013-01-28 17:21:00,
2013-01-28 10:36:00,18.2,15.0,32.50,SSE,163,12.0,19.0,87,0.00,,,0.00,weatherlink.com 1.10,2013-01-28 17:36:00,
2013-01-28 10:51:00,18.4,15.0,32.50,South,171,13.0,21.0,87,0.00,,,0.00,weatherlink.com 1.10,2013-01-28 17:51:00,
2013-01-28 11:06:00,18.6,15.0,32.50,South,176,15.0,22.0,87,0.00,,,0.00,weatherlink.com 1.10,2013-01-28 18:06:00,
2013-01-28 11:21:00,18.6,15.0,32.50,South,177,17.0,20.0,86,0.00,,,0.00,weatherlink.com 1.10,2013-01-28 18:21:00,
2013-01-28 11:36:00,18.9,15.0,32.50,SSW,194,13.0,18.0,86,0.00,,,0.00,weatherlink.com 1.10,2013-01-28 18:36:00,
2013-01-28 11:51:00,18.8,15.0,32.50,South,186,18.0,23.0,84,0.00,,,0.00,weatherlink.com 1.10,2013-01-28 18:51:00,
2013-01-28 12:06:00,19.0,15.0,32.50,SSW,200,14.0,21.0,84,0.00,,,0.00,weatherlink.com 1.10,2013-01-28 19:06:00,
2013-01-28 12:21:00,19.8,15.0,32.50,South,178,14.0,22.0,80,0.00,,,0.00,weatherlink.com 1.10,2013-01-28 19:21:00,
2013-01-28 12:36:00,20.1,13.0,32.50,SSW,196,15.0,25.0,75,0.00,,,0.00,weatherlink.com 1.10,2013-01-28 19:36:00,
2013-01-28 12:51:00,20.1,13.0,32.50,South,178,16.0,22.0,75,0.00,,,0.00,weatherlink.com 1.10,2013-01-28 19:51:00,
2013-01-28 13:06:00,20.2,14.0,32.50,South,185,15.0,21.0,77,0.00,,,0.00,weatherlink.com 1.10,2013-01-28 20:06:00,
2013-01-28 13:21:00,20.2,14.0,32.50,South,169,16.0,22.0,76,0.00,,,0.00,weatherlink.com 1.10,2013-01-28 20:21:00,
2013-01-28 13:36:00,20.5,14.0,32.50,South,189,13.0,24.0,76,0.00,,,0.00,weatherlink.com 1.10,2013-01-28 20:36:00,
2013-01-28 13:51:00,21.1,14.0,32.50,SSW,195,18.0,20.0,75,0.00,,,0.00,weatherlink.com 1.10,2013-01-28 20:51:00,
2013-01-28 14:06:00,21.1,14.0,32.50,SSW,195,18.0,21.0,74,0.00,,,0.00,weatherlink.com 1.10,2013-01-28 21:06:00,
2013-01-28 14:21:00,21.3,14.0,32.50,South,187,15.0,20.0,74,0.00,,,0.00,weatherlink.com 1.10,2013-01-28 21:21:00,
2013-01-28 14:36:00,21.4,14.0,32.50,SSW,194,13.0,17.0,74,0.00,,,0.00,weatherlink.com 1.10,2013-01-28 21:36:00,
2013-01-28 14:51:00,21.6,15.0,32.50,SSW,198,14.0,18.0,75,0.00,,,0.00,weatherlink.com 1.10,2013-01-28 21:51:00,
2013-01-28 15:06:00,21.5,14.0,32.50,South,184,15.0,19.0,73,0.00,,,0.00,weatherlink.com 1.10,2013-01-28 22:06:00,
2013-01-28 15:21:00,21.6,15.0,32.50,South,191,15.0,22.0,75,0.00,,,0.00,weatherlink.com 1.10,2013-01-28 22:21:00,
2013-01-28 15:36:00,21.7,15.0,32.50,SSW,201,14.0,22.0,75,0.00,,,0.00,weatherlink.com 1.10,2013-01-28 22:36:00,
2013-01-28 15:51:00,21.9,15.0,32.50,South,191,13.0,19.0,75,0.00,,,0.00,weatherlink.com 1.10,2013-01-28 22:51:00,
2013-01-28 16:06:00,21.9,15.0,32.50,SW,220,19.0,22.0,75,0.00,,,0.00,weatherlink.com 1.10,2013-01-28 23:06:00,
2013-01-28 16:21:00,21.7,15.0,32.50,SSW,212,13.0,20.0,75,0.00,,,0.00,weatherlink.com 1.10,2013-01-28 23:21:00,
2013-01-28 16:36:00,21.6,15.0,32.50,SW,234,13.0,22.0,75,0.00,,,0.00,weatherlink.com 1.10,2013-01-28 23:36:00,
2013-01-28 16:51:00,21.3,15.0,32.50,SW,222,8.0,20.0,77,0.00,,,0.00,weatherlink.com 1.10,2013-01-28 23:51:00,
2013-01-28 17:06:00,20.5,14.0,32.50,West,273,3.0,17.0,77,0.00,,,0.00,weatherlink.com 1.10,2013-01-29 00:06:00,
2013-01-28 17:21:00,20.3,16.0,32.50,SW,215,13.0,18.0,83,0.00,,,0.00,weatherlink.com 1.10,2013-01-29 00:21:00,
2013-01-28 17:36:00,20.1,15.0,32.50,SSW,207,11.0,15.0,82,0.00,,,0.00,weatherlink.com 1.10,2013-01-29 00:36:00,
2013-01-28 17:51:00,20.2,16.0,32.50,South,185,8.0,15.0,84,0.00,,,0.00,weatherlink.com 1.10,2013-01-29 00:51:00,
2013-01-28 18:06:00,19.8,17.0,32.50,SSW,198,7.0,17.0,87,0.00,,,0.00,weatherlink.com 1.10,2013-01-29 01:06:00,
2013-01-28 18:21:00,19.2,17.0,32.50,SSW,202,11.0,14.0,92,0.00,,,0.00,weatherlink.com 1.10,2013-01-29 01:21:00,
2013-01-28 18:36:00,19.3,17.0,32.50,South,186,17.0,17.0,92,0.00,,,0.00,weatherlink.com 1.10,2013-01-29 01:36:00,
2013-01-28 18:51:00,19.5,17.0,32.50,SSW,198,15.0,17.0,91,0.00,,,0.00,weatherlink.com 1.10,2013-01-29 01:51:00,
2013-01-28 19:06:00,19.5,18.0,32.50,SSW,195,12.0,17.0,92,0.00,,,0.00,weatherlink.com 1.10,2013-01-29 02:06:00,
2013-01-28 19:21:00,19.5,18.0,32.50,SSW,212,8.0,13.0,92,0.00,,,0.00,weatherlink.com 1.10,2013-01-29 02:21:00,
2013-01-28 19:36:00,19.5,17.0,32.50,SSW,209,4.0,12.0,91,0.00,,,0.00,weatherlink.com 1.10,2013-01-29 02:36:00,
2013-01-28 19:51:00,19.2,17.0,32.50,WSW,254,4.0,12.0,91,0.00,,,0.00,weatherlink.com 1.10,2013-01-29 02:51:00,
2013-01-28 20:06:00,19.3,17.0,32.50,SSE,159,7.0,11.0,91,0.00,,,0.00,weatherlink.com 1.10,2013-01-29 03:06:00,
2013-01-28 20:21:00,19.3,17.0,32.50,SSW,210,7.0,10.0,92,0.00,,,0.00,weatherlink.com 1.10,2013-01-29 03:21:00,
2013-01-28 20:36:00,19.3,17.0,32.50,South,186,9.0,14.0,92,0.00,,,0.00,weatherlink.com 1.10,2013-01-29 03:36:00,
2013-01-28 20:51:00,19.3,17.0,32.50,SSW,205,7.0,12.0,92,0.00,,,0.00,weatherlink.com 1.10,2013-01-29 03:51:00,
2013-01-28 21:06:00,19.2,17.0,32.50,South,191,10.0,16.0,91,0.00,,,0.00,weatherlink.com 1.10,2013-01-29 04:06:00,
2013-01-28 21:21:00,19.3,17.0,32.50,SW,231,14.0,15.0,92,0.00,,,0.00,weatherlink.com 1.10,2013-01-29 04:21:00,
2013-01-28 21:36:00,18.8,17.0,32.50,WNW,298,4.0,17.0,91,0.00,,,0.00,weatherlink.com 1.10,2013-01-29 04:36:00,
2013-01-28 21:51:00,18.6,16.0,32.50,SW,228,9.0,18.0,91,0.00,,,0.00,weatherlink.com 1.10,2013-01-29 04:51:00,
2013-01-28 22:06:00,19.1,17.0,32.50,SW,236,7.0,12.0,92,0.00,,,0.00,weatherlink.com 1.10,2013-01-29 05:06:00,
2013-01-28 22:21:00,19.0,17.0,32.50,WSW,255,5.0,13.0,92,0.00,,,0.00,weatherlink.com 1.10,2013-01-29 05:21:00,
2013-01-28 22:36:00,18.6,16.0,32.50,SSW,213,8.0,14.0,91,0.00,,,0.00,weatherlink.com 1.10,2013-01-29 05:36:00,
2013-01-28 22:51:00,18.6,16.0,32.50,WNW,292,7.0,10.0,91,0.00,,,0.00,weatherlink.com 1.10,2013-01-29 05:51:00,
2013-01-28 23:06:00,18.4,16.0,32.50,WNW,286,5.0,10.0,91,0.00,,,0.00,weatherlink.com 1.10,2013-01-29 06:06:00,
2013-01-28 23:21:00,18.4,16.0,32.50,WNW,291,3.0,6.0,91,0.00,,,0.00,weatherlink.com 1.10,2013-01-29 06:21:00,
2013-01-28 23:36:00,18.4,16.0,32.50,WNW,286,4.0,6.0,91,0.00,,,0.00,weatherlink.com 1.10,2013-01-29 06:36:00,
2013-01-28 23:51:00,18.3,16.0,32.50,WNW,285,3.0,9.0,91,0.00,,,0.00,weatherlink.com 1.10,2013-01-29 06:51:00,